sensor_id;sensor_type;location;lat;lon;timestamp;P1;durP1;ratioP1;P2;durP2;ratioP2
4061;SDS011;2046;47.064;15.456;2023-08-01T21:59:14;3.72;;;2.50;;
4061;SDS011;2046;47.064;15.456;2023-08-01T22:01:41;2.10;;;1.90;;
4061;SDS011;2046;47.064;15.456;2023-08-01T22:04:08;25.65;;;3.17;;
4061;SDS011;2046;47.064;15.456;2023-08-01T22:06:34;2.88;;;2.40;;
4061;SDS011;2046;47.064;15.456;2023-08-01T22:09:01;2.30;;;2.10;;
4061;SDS011;2046;47.064;15.456;2023-08-01T22:11:28;5.05;;;2.30;;
4061;SDS011;2046;47.064;15.456;2023-08-01T22:13:54;4.90;;;2.50;;
4061;SDS011;2046;47.064;15.456;2023-08-01T22:16:21;3.33;;;2.05;;
4061;SDS011;2046;47.064;15.456;2023-08-01T22:18:47;2.22;;;1.70;;
4061;SDS011;2046;47.064;15.456;2023-08-01T22:21:14;2.10;;;1.50;;
4061;SDS011;2046;47.064;15.456;2023-08-01T22:23:41;1.70;;;1.60;;
4061;SDS011;2046;47.064;15.456;2023-08-01T22:26:07;2.30;;;1.77;;
4061;SDS011;2046;47.064;15.456;2023-08-01T22:28:34;1.83;;;1.70;;
4061;SDS011;2046;47.064;15.456;2023-08-01T22:31:01;2.20;;;1.60;;
4061;SDS011;2046;47.064;15.456;2023-08-01T22:33:28;3.10;;;1.63;;
4061;SDS011;2046;47.064;15.456;2023-08-01T22:35:54;1.60;;;1.50;;
4061;SDS011;2046;47.064;15.456;2023-08-01T22:38:21;1.95;;;1.52;;
4061;SDS011;2046;47.064;15.456;2023-08-01T22:40:48;1.70;;;1.38;;
4061;SDS011;2046;47.064;15.456;2023-08-01T22:43:14;1.70;;;1.48;;
4061;SDS011;2046;47.064;15.456;2023-08-01T22:45:41;1.80;;;1.60;;
4061;SDS011;2046;47.064;15.456;2023-08-01T22:48:08;1.85;;;1.50;;
4061;SDS011;2046;47.064;15.456;2023-08-01T22:50:34;2.67;;;1.40;;
4061;SDS011;2046;47.064;15.456;2023-08-01T22:53:01;4.07;;;1.67;;
4061;SDS011;2046;47.064;15.456;2023-08-01T22:55:30;1.65;;;1.55;;
4061;SDS011;2046;47.064;15.456;2023-08-01T22:57:57;1.63;;;1.52;;
4061;SDS011;2046;47.064;15.456;2023-08-01T23:00:23;2.10;;;1.27;;
4061;SDS011;2046;47.064;15.456;2023-08-01T23:02:50;2.38;;;1.85;;
4061;SDS011;2046;47.064;15.456;2023-08-01T23:05:17;1.30;;;1.20;;
4061;SDS011;2046;47.064;15.456;2023-08-01T23:07:44;1.88;;;1.63;;
4061;SDS011;2046;47.064;15.456;2023-08-01T23:10:11;2.05;;;1.58;;
4061;SDS011;2046;47.064;15.456;2023-08-01T23:12:38;3.80;;;1.60;;
4061;SDS011;2046;47.064;15.456;2023-08-01T23:15:05;2.10;;;1.55;;
4061;SDS011;2046;47.064;15.456;2023-08-01T23:17:33;3.20;;;1.92;;
4061;SDS011;2046;47.064;15.456;2023-08-01T23:20:00;2.50;;;1.77;;
4061;SDS011;2046;47.064;15.456;2023-08-01T23:22:27;2.35;;;1.52;;
4061;SDS011;2046;47.064;15.456;2023-08-01T23:24:53;1.70;;;1.50;;
4061;SDS011;2046;47.064;15.456;2023-08-01T23:27:20;1.48;;;1.38;;
4061;SDS011;2046;47.064;15.456;2023-08-01T23:29:50;1.38;;;1.27;;
4061;SDS011;2046;47.064;15.456;2023-08-01T23:32:17;1.30;;;1.20;;
4061;SDS011;2046;47.064;15.456;2023-08-01T23:34:43;4.28;;;1.45;;
4061;SDS011;2046;47.064;15.456;2023-08-01T23:37:10;2.25;;;1.65;;
4061;SDS011;2046;47.064;15.456;2023-08-01T23:39:37;3.60;;;0.98;;
4061;SDS011;2046;47.064;15.456;2023-08-01T23:42:03;1.73;;;1.30;;
4061;SDS011;2046;47.064;15.456;2023-08-01T23:44:30;1.73;;;1.23;;
4061;SDS011;2046;47.064;15.456;2023-08-01T23:46:57;1.40;;;1.30;;
4061;SDS011;2046;47.064;15.456;2023-08-01T23:49:24;1.40;;;1.30;;
4061;SDS011;2046;47.064;15.456;2023-08-01T23:51:51;3.13;;;1.60;;
4061;SDS011;2046;47.064;15.456;2023-08-01T23:54:19;2.47;;;1.17;;
4061;SDS011;2046;47.064;15.456;2023-08-01T23:56:45;5.13;;;1.50;;
4061;SDS011;2046;47.064;15.456;2023-08-01T23:59:12;1.67;;;0.93;;
